Time;durP1;ratioP1;P1;durP2;ratioP2;P2;SDS_P1;SDS_P2;PMS_P1;PMS_P2;Temp;Humidity;BMP_temperature;BMP_pressure;BME280_temperature;BME280_humidity;BME280_pressure;Samples;Min_cycle;Max_cycle;Signal;HPM_P1;HPM_P2
2023/07/01 00:01:59;;;;;;;6.80;1.80;;;;;;;19.36;54.46;100659.88;5064534;28;20095;-77
2023/07/01 00:04:27;;;;;;;6.07;1.50;;;;;;;19.36;54.12;100659.03;5066242;28;20069;-77
2023/07/01 00:06:55;;;;;;;4.78;1.50;;;;;;;19.36;54.39;100637.66;5063683;28;20045;-76
2023/07/01 00:09:23;;;;;;;6.00;1.65;;;;;;;19.35;53.60;100638.63;5067851;28;20045;-77
2023/07/01 00:11:51;;;;;;;5.25;1.70;;;;;;;19.34;53.39;100637.75;5065758;28;20047;-79
2023/07/01 00:14:18;;;;;;;5.07;1.58;;;;;;;19.34;53.09;100639.59;5068595;28;20099;-77
2023/07/01 00:16:46;;;;;;;4.18;1.50;;;;;;;19.33;52.34;100638.72;5065381;28;20041;-77
2023/07/01 00:19:13;;;;;;;4.35;1.50;;;;;;;19.30;52.39;100638.06;5068027;28;20583;-76
2023/07/01 00:21:40;;;;;;;4.88;1.20;;;;;;;19.31;52.92;100638.00;5070544;28;20048;-77
2023/07/01 00:24:07;;;;;;;4.68;1.50;;;;;;;19.29;52.90;100626.53;5069427;28;20041;-79
2023/07/01 00:26:35;;;;;;;6.90;1.65;;;;;;;19.28;52.81;100627.50;5067010;28;20064;-77
2023/07/01 00:29:03;;;;;;;4.82;1.80;;;;;;;19.26;52.91;100624.06;5067816;28;20099;-80
2023/07/01 00:31:32;;;;;;;4.93;2.00;;;;;;;19.23;53.00;100621.63;5063861;28;20135;-79
2023/07/01 00:33:59;;;;;;;4.13;1.63;;;;;;;19.19;53.08;100622.81;5066979;28;20064;-78
2023/07/01 00:36:26;;;;;;;2.45;1.30;;;;;;;19.16;53.21;100615.00;5067068;28;20111;-79
2023/07/01 00:38:53;;;;;;;3.95;1.60;;;;;;;19.16;52.97;100606.97;5067316;28;20666;-76
2023/07/01 00:41:20;;;;;;;3.83;1.50;;;;;;;19.11;53.06;100601.97;5062215;28;20107;-75
2023/07/01 00:43:48;;;;;;;5.85;1.63;;;;;;;19.09;53.50;100598.53;5066324;28;20048;-75
2023/07/01 00:46:16;;;;;;;3.58;1.60;;;;;;;19.06;53.34;100590.75;5064471;28;20555;-76
2023/07/01 00:48:44;;;;;;;6.15;1.55;;;;;;;19.04;53.11;100584.66;5063984;28;20064;-76
2023/07/01 00:51:12;;;;;;;5.47;1.88;;;;;;;19.01;53.38;100583.06;5062753;28;20045;-76
2023/07/01 00:53:40;;;;;;;5.32;1.63;;;;;;;19.01;53.59;100590.22;5064889;28;20091;-76
2023/07/01 00:56:08;;;;;;;4.43;1.60;;;;;;;18.97;53.66;100573.56;5062722;28;20092;-75
2023/07/01 00:58:35;;;;;;;3.92;1.58;;;;;;;18.95;53.39;100579.97;5066953;28;20041;-74
2023/07/01 01:01:12;;;;;;;3.03;1.45;;;;;;;18.93;53.56;100569.38;5062754;28;20041;-75
2023/07/01 01:03:53;;;;;;;5.97;1.63;;;;;;;18.91;53.58;100561.44;5065605;28;20056;-76
2023/07/01 01:06:36;;;;;;;4.25;1.67;;;;;;;18.90;53.69;100550.88;5064424;28;20052;-74
2023/07/01 01:09:15;;;;;;;7.68;1.77;;;;;;;18.89;53.75;100555.34;5060970;28;20112;-73
2023/07/01 01:11:47;;;;;;;4.35;1.58;;;;;;;18.87;53.80;100549.25;5054884;28;20052;-73
2023/07/01 01:14:16;;;;;;;5.63;1.80;;;;;;;18.85;54.14;100535.19;5050494;28;20037;-75
2023/07/01 01:16:47;;;;;;;3.45;1.65;;;;;;;18.88;53.91;100545.63;5063646;28;20049;-74
2023/07/01 01:19:37;;;;;;;4.43;1.77;;;;;;;18.89;53.81;100544.66;5078164;28;20528;-75
2023/07/01 01:22:12;;;;;;;4.85;1.70;;;;;;;18.84;53.96;100536.16;5064234;28;20992;-74
2023/07/01 01:24:44;;;;;;;5.97;1.92;;;;;;;18.84;54.09;100530.81;5064040;28;20103;-75
2023/07/01 01:27:18;;;;;;;3.53;1.60;;;;;;;18.87;54.33;100532.41;5065184;28;20041;-73
2023/07/01 01:29:45;;;;;;;8.05;1.83;;;;;;;18.88;54.07;100534.94;5066642;28;20072;-74
2023/07/01 01:32:12;;;;;;;6.93;1.77;;;;;;;18.88;54.18;100529.59;5063975;28;20107;-73
2023/07/01 01:34:39;;;;;;;3.65;1.40;;;;;;;18.88;54.24;100515.41;5051007;28;20061;-75
2023/07/01 01:37:16;;;;;;;4.32;1.50;;;;;;;18.90;54.09;100525.03;5064804;28;20045;-76
2023/07/01 01:39:51;;;;;;;4.82;1.80;;;;;;;18.92;53.96;100525.78;5055505;28;20454;-75
2023/07/01 01:42:34;;;;;;;4.50;1.80;;;;;;;18.93;53.99;100522.16;5058359;28;20045;-75
2023/07/01 01:45:03;;;;;;;2.88;1.67;;;;;;;18.95;54.08;100513.19;5046500;28;20124;-75
2023/07/01 01:47:31;;;;;;;4.20;1.60;;;;;;;18.97;53.69;100514.78;5056243;28;20494;-75
2023/07/01 01:50:07;;;;;;;7.70;1.80;;;;;;;18.95;53.81;100516.72;5063152;28;20132;-75
2023/07/01 01:52:36;;;;;;;4.68;1.83;;;;;;;18.97;53.77;100512.13;5062885;28;20111;-75
2023/07/01 01:55:07;;;;;;;7.55;1.60;;;;;;;18.99;53.96;100520.00;5065584;28;20494;-76
2023/07/01 01:57:35;;;;;;;3.75;1.60;;;;;;;18.97;53.85;100512.13;5067379;28;20064;-75
2023/07/01 02:00:08;;;;;;;4.15;1.50;;;;;;;18.97;53.93;100512.13;5061503;28;20047;-75
2023/07/01 02:02:40;;;;;;;4.38;1.50;;;;;;;18.93;54.24;100498.13;5064063;28;20056;-79
2023/07/01 02:05:08;;;;;;;4.10;1.60;;;;;;;18.92;54.16;100493.72;5065671;28;20052;-77
2023/07/01 02:07:38;;;;;;;4.05;1.70;;;;;;;18.92;53.66;100496.41;5068942;28;20077;-78
2023/07/01 02:10:07;;;;;;;5.72;1.73;;;;;;;18.93;54.30;100492.78;5068912;28;20053;-76
2023/07/01 02:12:35;;;;;;;4.90;1.90;;;;;;;18.95;54.28;100483.81;5058853;28;20122;-76
2023/07/01 02:15:02;;;;;;;5.72;1.77;;;;;;;18.95;54.57;100473.13;5068974;28;20100;-77
2023/07/01 02:17:29;;;;;;;9.32;1.88;;;;;;;18.95;54.71;100471.31;5068459;28;20037;-76
2023/07/01 02:19:56;;;;;;;7.55;2.00;;;;;;;18.96;55.03;100457.00;5067819;28;20052;-77
2023/07/01 02:22:23;;;;;;;5.40;1.60;;;;;;;18.97;55.04;100455.19;5065716;28;20048;-76
2023/07/01 02:24:50;;;;;;;5.97;1.98;;;;;;;18.96;54.77;100461.50;5069063;28;20072;-77
2023/07/01 02:27:19;;;;;;;4.38;1.65;;;;;;;18.95;55.37;100457.94;5062797;28;20073;-77
2023/07/01 02:29:47;;;;;;;5.40;1.80;;;;;;;18.93;55.07;100455.41;5066642;28;20056;-77
2023/07/01 02:32:14;;;;;;;5.78;1.58;;;;;;;18.96;55.67;100461.50;5066166;28;20048;-77
2023/07/01 02:34:41;;;;;;;5.25;1.58;;;;;;;18.96;55.60;100451.66;5067139;28;20047;-76
2023/07/01 02:37:09;;;;;;;4.10;1.70;;;;;;;18.94;55.53;100445.56;5065410;28;20045;-77
2023/07/01 02:39:36;;;;;;;4.38;1.80;;;;;;;18.95;55.78;100444.59;5067947;28;20044;-76
2023/07/01 02:42:04;;;;;;;6.70;1.80;;;;;;;18.95;56.15;100446.44;5064930;28;20520;-77
2023/07/01 02:44:31;;;;;;;6.38;2.03;;;;;;;18.94;56.25;100442.88;5066939;28;20175;-75
2023/07/01 02:46:59;;;;;;;3.83;1.67;;;;;;;18.94;56.60;100437.56;5065826;28;20533;-75
2023/07/01 02:49:26;;;;;;;6.68;2.03;;;;;;;18.91;56.71;100435.94;5067028;28;20091;-76
2023/07/01 02:51:53;;;;;;;3.78;2.13;;;;;;;18.88;56.90;100436.13;5061587;28;20114;-74
2023/07/01 02:54:20;;;;;;;7.13;2.25;;;;;;;18.87;57.35;100439.78;5062232;28;20072;-74
2023/07/01 02:56:48;;;;;;;5.82;2.15;;;;;;;18.83;57.40;100440.97;5065466;28;20187;-76
2023/07/01 02:59:15;;;;;;;5.20;2.08;;;;;;;18.81;57.92;100442.91;5067017;28;20041;-76
2023/07/01 03:01:44;;;;;;;14.23;1.92;;;;;;;18.78;58.19;100435.09;5059058;28;20370;-77
2023/07/01 03:04:14;;;;;;;8.40;2.20;;;;;;;18.77;58.43;100433.41;5066280;28;20033;-75
2023/07/01 03:06:44;;;;;;;6.20;2.05;;;;;;;18.75;58.17;100432.66;5065704;28;20510;-76
2023/07/01 03:09:11;;;;;;;5.57;2.10;;;;;;;18.73;58.66;100445.25;5066996;28;20045;-77
2023/07/01 03:11:38;;;;;;;4.72;2.08;;;;;;;18.71;58.79;100439.16;5066504;28;20041;-75
2023/07/01 03:14:05;;;;;;;3.75;2.00;;;;;;;18.71;59.29;100433.84;5067348;28;20045;-76
2023/07/01 03:16:32;;;;;;;5.10;2.08;;;;;;;18.71;59.15;100436.50;5066934;28;20498;-73
2023/07/01 03:18:59;;;;;;;26.65;3.10;;;;;;;18.69;60.47;100436.63;5066847;28;20038;-74
2023/07/01 03:21:27;;;;;;;12.45;2.50;;;;;;;18.66;60.43;100431.50;5067023;28;20049;-73
2023/07/01 03:23:54;;;;;;;5.47;1.80;;;;;;;18.61;61.01;100422.97;5065290;28;20535;-73
2023/07/01 03:26:21;;;;;;;4.18;1.90;;;;;;;18.57;61.23;100421.47;5064867;28;20094;-73
2023/07/01 03:28:48;;;;;;;6.13;2.13;;;;;;;18.55;61.73;100426.06;5067067;28;20096;-73
2023/07/01 03:31:16;;;;;;;6.20;1.90;;;;;;;18.54;62.64;100421.66;5062264;28;20119;-73
2023/07/01 03:33:43;;;;;;;9.20;1.77;;;;;;;18.47;62.42;100421.25;5065349;28;20105;-73
2023/07/01 03:36:10;;;;;;;6.30;1.77;;;;;;;18.44;63.31;100414.31;5065348;28;20034;-73
2023/07/01 03:38:37;;;;;;;5.22;1.60;;;;;;;18.41;63.15;100416.34;5068705;28;20081;-73
2023/07/01 03:41:06;;;;;;;3.67;1.70;;;;;;;18.40;63.17;100409.31;5065722;28;20115;-76
2023/07/01 03:43:34;;;;;;;4.68;1.77;;;;;;;18.40;63.56;100407.50;5068382;28;20075;-76
2023/07/01 03:46:02;;;;;;;10.18;2.40;;;;;;;18.37;64.32;100409.50;5065419;28;20127;-75
2023/07/01 03:48:30;;;;;;;9.15;2.03;;;;;;;18.33;65.93;100408.88;5065197;28;20080;-74
2023/07/01 03:50:57;;;;;;;12.05;2.25;;;;;;;18.25;66.88;100409.44;5065243;28;20045;-75
2023/07/01 03:53:24;;;;;;;7.30;1.48;;;;;;;18.17;68.29;100403.75;5067548;28;20041;-75
2023/07/01 03:55:51;;;;;;;9.20;1.90;;;;;;;18.09;69.15;100400.75;5066020;28;20048;-76
2023/07/01 03:58:24;;;;;;;16.95;2.60;;;;;;;18.03;70.58;100403.88;5065493;28;22443;-76
2023/07/01 04:00:53;;;;;;;6.93;1.60;;;;;;;17.92;70.90;100397.44;5062705;28;20073;-75
2023/07/01 04:03:23;;;;;;;6.32;1.63;;;;;;;17.83;71.23;100393.56;5060571;28;20127;-74
2023/07/01 04:05:51;;;;;;;5.72;1.80;;;;;;;17.77;71.25;100396.66;5067609;28;20040;-73
2023/07/01 04:08:20;;;;;;;6.72;1.70;;;;;;;17.74;71.09;100394.19;5067177;28;20123;-73
2023/07/01 04:10:48;;;;;;;3.65;1.60;;;;;;;17.74;71.17;100391.53;5066442;28;20045;-72
2023/07/01 04:13:15;;;;;;;3.97;1.77;;;;;;;17.75;71.39;100385.25;5065003;28;20103;-77
2023/07/01 04:15:42;;;;;;;7.57;2.08;;;;;;;17.76;70.68;100380.75;5069216;28;20043;-76
2023/07/01 04:18:09;;;;;;;3.33;1.75;;;;;;;17.75;70.87;100376.41;5067344;28;20489;-73
2023/07/01 04:20:36;;;;;;;3.95;2.00;;;;;;;17.75;71.10;100376.41;5068260;28;20115;-76
2023/07/01 04:23:03;;;;;;;3.75;1.80;;;;;;;17.78;71.47;100379.72;5056855;28;20045;-77
2023/07/01 04:25:30;;;;;;;8.32;2.13;;;;;;;17.80;70.59;100371.59;5069882;28;20988;-75
2023/07/01 04:27:57;;;;;;;4.20;1.80;;;;;;;17.85;71.25;100374.81;5072614;28;20033;-77
2023/07/01 04:30:24;;;;;;;4.82;2.00;;;;;;;17.86;71.61;100376.50;5069199;28;20045;-77
2023/07/01 04:32:52;;;;;;;2.60;1.60;;;;;;;17.84;72.60;100373.09;5070107;28;20040;-78
2023/07/01 04:35:19;;;;;;;3.03;1.90;;;;;;;17.80;72.98;100372.47;5059772;28;20051;-77
2023/07/01 04:37:46;;;;;;;4.88;1.80;;;;;;;17.76;74.05;100378.06;5070635;28;20121;-77
2023/07/01 04:40:13;;;;;;;3.45;2.03;;;;;;;17.69;74.31;100370.50;5066703;28;20068;-77
2023/07/01 04:42:46;;;;;;;4.93;1.80;;;;;;;17.62;75.37;100366.56;5061579;28;20045;-78
2023/07/01 04:45:13;;;;;;;4.00;1.70;;;;;;;17.61;75.97;100369.31;5059859;28;20528;-77
2023/07/01 04:47:40;;;;;;;5.88;2.17;;;;;;;17.54;76.28;100359.06;5059616;28;20045;-78
2023/07/01 04:50:08;;;;;;;3.08;1.80;;;;;;;17.49;76.55;100355.88;5062902;28;20040;-77
2023/07/01 04:52:35;;;;;;;3.65;1.77;;;;;;;17.44;77.14;100357.16;5064465;28;20488;-76
2023/07/01 04:55:03;;;;;;;6.55;1.90;;;;;;;17.39;78.31;100357.44;5064480;28;20045;-73
2023/07/01 04:57:30;;;;;;;3.88;1.95;;;;;;;17.33;78.25;100364.03;5059279;28;20120;-73
2023/07/01 04:59:57;;;;;;;4.05;1.88;;;;;;;17.32;79.77;100353.47;5059559;28;20072;-75
2023/07/01 05:02:24;;;;;;;4.55;1.90;;;;;;;17.25;80.15;100357.50;5059719;28;20041;-73
2023/07/01 05:04:51;;;;;;;4.63;2.10;;;;;;;17.19;80.24;100354.31;5057288;28;20057;-74
2023/07/01 05:07:19;;;;;;;3.20;1.85;;;;;;;17.14;81.53;100352.91;5061517;28;20049;-74
2023/07/01 05:09:46;;;;;;;4.38;1.80;;;;;;;17.09;82.46;100347.88;5062735;28;20068;-74
2023/07/01 05:12:13;;;;;;;2.53;1.75;;;;;;;17.07;82.95;100347.94;5058208;28;20061;-72
2023/07/01 05:14:40;;;;;;;4.68;1.83;;;;;;;17.03;83.95;100343.81;5054950;28;20120;-75
2023/07/01 05:17:08;;;;;;;3.45;2.00;;;;;;;16.98;83.24;100345.91;5063692;28;20124;-76
2023/07/01 05:19:35;;;;;;;4.95;2.20;;;;;;;17.00;83.67;100346.66;5057384;28;20100;-76
2023/07/01 05:22:03;;;;;;;3.33;1.83;;;;;;;17.00;84.22;100345.78;5066943;28;20050;-77
2023/07/01 05:24:30;;;;;;;3.00;2.10;;;;;;;16.97;83.80;100338.84;5051755;28;20063;-76
2023/07/01 05:26:57;;;;;;;5.25;2.10;;;;;;;16.97;84.23;100336.19;5054089;28;20053;-78
2023/07/01 05:29:26;;;;;;;2.78;2.20;;;;;;;16.97;83.71;100340.69;5066615;28;20047;-79
2023/07/01 05:31:55;;;;;;;1.90;1.65;;;;;;;17.01;84.15;100343.03;5072680;28;20049;-80
2023/07/01 05:34:23;;;;;;;5.38;1.88;;;;;;;17.03;84.55;100338.47;5058955;28;20041;-78
2023/07/01 05:36:55;;;;;;;3.53;1.90;;;;;;;17.02;84.82;100344.75;5064741;28;20536;-79
2023/07/01 05:39:22;;;;;;;2.42;1.45;;;;;;;17.01;84.11;100345.69;5069333;28;20521;-78
2023/07/01 05:41:49;;;;;;;3.88;1.83;;;;;;;17.01;84.24;100342.16;5064673;28;20156;-78
2023/07/01 05:44:16;;;;;;;3.35;2.20;;;;;;;17.02;84.65;100336.75;5058222;28;20498;-78
2023/07/01 05:46:43;;;;;;;4.28;2.00;;;;;;;17.01;84.91;100335.06;5062222;28;20112;-79
2023/07/01 05:49:10;;;;;;;2.78;1.88;;;;;;;17.00;84.65;100336.00;5060922;28;20053;-79
2023/07/01 05:51:40;;;;;;;5.55;2.20;;;;;;;17.00;84.94;100332.47;5058006;28;20049;-79
2023/07/01 05:54:08;;;;;;;2.42;1.92;;;;;;;16.97;85.52;100336.19;5055331;28;20104;-79
2023/07/01 05:56:35;;;;;;;2.67;1.90;;;;;;;16.94;85.20;100331.06;5068575;28;20044;-77
2023/07/01 05:59:02;;;;;;;3.83;1.75;;;;;;;16.93;85.55;100337.34;5058624;28;20037;-79
2023/07/01 06:01:30;;;;;;;2.78;1.95;;;;;;;16.93;85.54;100329.34;5065986;28;20132;-81
2023/07/01 06:03:57;;;;;;;2.42;1.98;;;;;;;16.98;86.07;100329.91;5059795;28;20096;-77
2023/07/01 06:06:24;;;;;;;4.13;1.70;;;;;;;17.00;86.01;100324.47;5064596;28;20866;-78
2023/07/01 06:08:51;;;;;;;4.22;1.90;;;;;;;17.01;85.71;100326.19;5058152;28;20457;-77
2023/07/01 06:11:18;;;;;;;2.05;1.60;;;;;;;17.03;86.00;100329.63;5070516;28;20065;-77
2023/07/01 06:13:49;;;;;;;3.67;1.90;;;;;;;17.02;86.73;100323.44;5067419;28;20041;-76
2023/07/01 06:16:17;;;;;;;2.78;2.00;;;;;;;17.02;86.11;100328.78;5061621;28;20111;-77
2023/07/01 06:18:44;;;;;;;3.40;1.77;;;;;;;17.01;86.18;100328.84;5059267;28;20041;-75
2023/07/01 06:21:11;;;;;;;2.45;1.60;;;;;;;17.03;86.70;100326.94;5065759;28;20069;-75
2023/07/01 06:23:39;;;;;;;2.90;1.80;;;;;;;17.04;87.72;100316.19;5074720;28;20118;-77
2023/07/01 06:26:08;;;;;;;4.72;2.13;;;;;;;17.03;87.81;100321.63;5073439;28;20053;-77
2023/07/01 06:28:35;;;;;;;2.97;1.90;;;;;;;17.00;88.62;100329.81;5066391;28;20064;-78
2023/07/01 06:31:02;;;;;;;3.40;1.90;;;;;;;16.98;88.92;100319.28;5067274;28;20451;-78
2023/07/01 06:33:30;;;;;;;3.47;1.90;;;;;;;16.99;88.89;100322.81;5060535;28;20064;-78
2023/07/01 06:35:57;;;;;;;3.25;1.90;;;;;;;17.01;89.48;100318.22;5058361;28;20414;-78
2023/07/01 06:38:24;;;;;;;3.72;2.10;;;;;;;17.04;89.54;100316.19;5062564;28;20053;-77
2023/07/01 06:40:51;;;;;;;3.50;2.00;;;;;;;17.07;89.51;100308.00;5064209;28;20045;-79
2023/07/01 06:43:18;;;;;;;3.88;1.88;;;;;;;17.07;89.57;100310.69;5066241;28;20122;-77
2023/07/01 06:45:45;;;;;;;3.70;1.98;;;;;;;17.05;90.30;100311.75;5063501;28;20131;-76
2023/07/01 06:48:12;;;;;;;2.30;1.80;;;;;;;17.04;89.95;100312.69;5058751;28;20088;-78
2023/07/01 06:50:40;;;;;;;3.97;1.80;;;;;;;17.03;89.64;100311.84;5055212;28;20577;-78
2023/07/01 06:53:07;;;;;;;3.35;1.85;;;;;;;17.09;90.26;100305.28;5064715;28;20067;-77
2023/07/01 06:55:35;;;;;;;3.10;1.90;;;;;;;17.14;89.67;100310.28;5077131;28;20079;-78
2023/07/01 06:58:03;;;;;;;1.98;1.67;;;;;;;17.21;89.35;100312.41;5071872;28;20159;-80
2023/07/01 07:00:33;;;;;;;2.15;1.40;;;;;;;17.30;89.59;100313.63;5061965;28;20100;-79
2023/07/01 07:03:00;;;;;;;3.20;2.00;;;;;;;17.35;89.21;100314.16;5066831;28;20463;-79
2023/07/01 07:05:27;;;;;;;3.88;1.65;;;;;;;17.45;88.66;100314.41;5074851;28;20036;-80
2023/07/01 07:07:55;;;;;;;2.20;1.70;;;;;;;17.49;88.33;100309.72;5081135;28;20146;-79
2023/07/01 07:10:22;;;;;;;3.08;1.83;;;;;;;17.51;88.62;100299.81;5077513;28;20045;-79
2023/07/01 07:12:49;;;;;;;2.67;1.60;;;;;;;17.51;88.13;100299.81;5068979;28;20044;-78
2023/07/01 07:15:16;;;;;;;2.30;1.48;;;;;;;17.55;88.58;100303.94;5082137;28;20045;-79
2023/07/01 07:17:44;;;;;;;3.05;1.70;;;;;;;17.59;89.02;100305.47;5073988;28;20527;-78
2023/07/01 07:20:11;;;;;;;2.67;1.50;;;;;;;17.58;88.87;100301.09;5059409;28;20042;-74
2023/07/01 07:22:38;;;;;;;2.15;1.60;;;;;;;17.56;88.49;100302.16;5060588;28;20049;-75
2023/07/01 07:25:06;;;;;;;2.53;1.52;;;;;;;17.58;88.38;100293.09;5067467;28;20049;-75
2023/07/01 07:27:33;;;;;;;1.85;1.50;;;;;;;17.59;88.15;100292.13;5073231;28;20641;-75
2023/07/01 07:30:00;;;;;;;2.65;1.60;;;;;;;17.59;88.54;100296.63;5067307;28;20041;-77
2023/07/01 07:32:30;;;;;;;2.60;1.38;;;;;;;17.60;89.11;100299.19;5067118;28;20116;-80
2023/07/01 07:34:57;;;;;;;2.10;1.50;;;;;;;17.62;88.42;100301.72;5082171;28;20045;-81
2023/07/01 07:37:24;;;;;;;2.88;1.70;;;;;;;17.64;88.27;100294.50;5079728;28;20041;-81
2023/07/01 07:39:53;;;;;;;2.63;1.80;;;;;;;17.66;88.14;100289.91;5081213;28;20088;-81
2023/07/01 07:42:20;;;;;;;2.63;1.90;;;;;;;17.72;87.78;100296.63;5058297;28;20045;-81
2023/07/01 07:44:47;;;;;;;2.45;1.73;;;;;;;17.73;88.19;100285.84;5063842;28;20115;-80
2023/07/01 07:47:14;;;;;;;1.77;1.60;;;;;;;17.72;87.61;100291.31;5069253;28;20091;-81
2023/07/01 07:49:41;;;;;;;2.55;1.52;;;;;;;17.72;87.45;100288.63;5071770;28;20106;-80
2023/07/01 07:52:09;;;;;;;1.98;1.40;;;;;;;17.77;87.57;100305.16;5076056;28;20037;-80
2023/07/01 07:54:36;;;;;;;1.80;1.48;;;;;;;17.76;88.26;100298.09;5066695;28;20295;-76
2023/07/01 07:57:03;;;;;;;4.32;1.63;;;;;;;17.72;87.81;100301.97;5084374;28;20076;-75
2023/07/01 07:59:30;;;;;;;2.00;1.80;;;;;;;17.69;87.78;100289.72;5071601;28;20037;-75
2023/07/01 08:01:58;;;;;;;2.67;1.52;;;;;;;17.72;88.15;100293.97;5064108;28;20116;-75
2023/07/01 08:04:26;;;;;;;2.53;1.33;;;;;;;17.72;88.21;100289.47;5065528;28;20037;-83
2023/07/01 08:06:53;;;;;;;2.10;1.55;;;;;;;17.77;87.94;100295.34;5066874;28;20049;-81
2023/07/01 08:09:20;;;;;;;2.17;1.55;;;;;;;17.83;88.05;100286.09;5057771;28;20040;-81
2023/07/01 08:11:47;;;;;;;4.07;1.60;;;;;;;17.79;87.32;100282.78;5082181;28;20044;-81
2023/07/01 08:14:14;;;;;;;2.08;1.75;;;;;;;17.80;87.64;100286.28;5069849;28;20121;-80
2023/07/01 08:16:42;;;;;;;1.92;1.70;;;;;;;17.84;88.00;100277.13;5063158;28;20133;-80
2023/07/01 08:19:09;;;;;;;3.83;1.60;;;;;;;17.88;87.45;100286.59;5072134;28;20480;-81
2023/07/01 08:21:37;;;;;;;3.22;1.83;;;;;;;17.95;87.71;100279.03;5066568;28;20666;-81
2023/07/01 08:24:08;;;;;;;2.72;1.60;;;;;;;18.06;87.58;100278.31;5063489;28;20049;-78
2023/07/01 08:26:36;;;;;;;3.55;1.83;;;;;;;18.20;87.34;100277.34;5081191;28;20044;-79
2023/07/01 08:29:08;;;;;;;3.15;1.60;;;;;;;18.31;86.89;100277.41;5072487;28;20131;-80
2023/07/01 08:31:36;;;;;;;1.60;1.50;;;;;;;18.31;86.60;100266.75;5083052;28;20056;-80
2023/07/01 08:34:03;;;;;;;2.83;1.50;;;;;;;18.30;86.77;100265.88;5071471;28;20140;-77
2023/07/01 08:36:30;;;;;;;3.03;1.65;;;;;;;18.31;86.76;100264.09;5067455;28;20131;-82
2023/07/01 08:38:57;;;;;;;1.90;1.38;;;;;;;18.34;86.25;100265.66;5067903;28;20762;-79
2023/07/01 08:41:25;;;;;;;2.60;1.52;;;;;;;18.33;86.57;100270.13;5065272;28;20103;-76
2023/07/01 08:43:54;;;;;;;2.40;1.70;;;;;;;18.35;86.80;100273.53;5069711;28;20053;-77
2023/07/01 08:46:23;;;;;;;1.70;1.48;;;;;;;18.38;87.11;100270.66;5063078;28;20914;-77
2023/07/01 08:48:54;;;;;;;1.55;1.45;;;;;;;18.40;86.91;100262.53;5058027;28;20049;-76
2023/07/01 08:51:28;;;;;;;2.00;1.80;;;;;;;18.41;87.27;100264.25;5049903;28;20045;-76
2023/07/01 08:54:00;;;;;;;2.83;1.70;;;;;;;18.43;87.66;100268.50;5066212;28;20060;-80
2023/07/01 08:56:27;;;;;;;2.63;1.50;;;;;;;18.43;87.98;100260.50;5068182;28;20056;-77
2023/07/01 08:58:55;;;;;;;2.08;1.60;;;;;;;18.43;88.15;100265.00;5067379;28;20069;-78
2023/07/01 09:01:22;;;;;;;2.13;1.45;;;;;;;18.44;88.46;100256.03;5062697;28;20049;-82
2023/07/01 09:03:49;;;;;;;2.70;1.70;;;;;;;18.51;88.30;100259.94;5064053;28;20052;-81
2023/07/01 09:06:17;;;;;;;3.05;1.70;;;;;;;18.63;88.52;100260.84;5077879;28;20764;-79
2023/07/01 09:08:44;;;;;;;2.33;1.50;;;;;;;18.73;88.67;100255.69;5070803;28;20840;-74
2023/07/01 09:11:16;;;;;;;1.73;1.20;;;;;;;18.82;88.02;100255.03;5075559;28;20067;-79
2023/07/01 09:13:43;;;;;;;1.83;1.50;;;;;;;18.96;87.52;100258.53;5068159;28;20799;-79
2023/07/01 09:16:11;;;;;;;1.25;1.13;;;;;;;19.04;87.54;100256.13;5067099;28;20549;-79
2023/07/01 09:18:43;;;;;;;1.90;1.20;;;;;;;19.12;86.86;100255.53;5064332;28;20037;-78
2023/07/01 09:21:18;;;;;;;1.80;1.30;;;;;;;19.17;86.77;100256.91;5061000;28;20092;-78
2023/07/01 09:23:47;;;;;;;4.20;1.40;;;;;;;19.19;86.33;100251.44;5063840;28;20041;-78
2023/07/01 09:26:17;;;;;;;1.45;1.20;;;;;;;19.23;86.35;100259.09;5059650;28;20051;-77
2023/07/01 09:28:49;;;;;;;1.33;1.20;;;;;;;19.27;85.43;100256.19;5059625;28;20127;-79
2023/07/01 09:31:17;;;;;;;2.25;1.23;;;;;;;19.28;85.74;100248.06;5064398;28;20044;-79
2023/07/01 09:34:06;;;;;;;1.40;1.30;;;;;;;19.35;86.06;100243.09;5062702;28;20037;-78
2023/07/01 09:36:33;;;;;;;1.73;1.50;;;;;;;19.44;85.99;100244.19;5057118;28;20206;-80
2023/07/01 09:39:02;;;;;;;1.30;1.20;;;;;;;19.55;86.34;100242.41;5062682;28;20051;-79
2023/07/01 09:41:30;;;;;;;1.20;1.08;;;;;;;19.69;85.80;100240.47;5056214;28;20053;-79
2023/07/01 09:43:59;;;;;;;2.25;1.15;;;;;;;19.74;85.35;100232.09;5067973;28;20071;-77
2023/07/01 09:46:42;;;;;;;1.55;1.40;;;;;;;19.76;85.12;100235.50;5076104;28;20513;-79
2023/07/01 09:49:10;;;;;;;1.33;1.23;;;;;;;19.75;84.98;100245.34;5076267;28;20179;-78
2023/07/01 09:51:49;;;;;;;1.50;1.20;;;;;;;19.71;85.03;100233.19;5069159;28;20052;-79
2023/07/01 09:54:28;;;;;;;1.45;1.35;;;;;;;19.70;86.23;100237.69;5077570;28;20108;-79
2023/07/01 09:56:58;;;;;;;1.15;1.00;;;;;;;19.77;86.42;100232.72;5072003;28;20048;-77
2023/07/01 09:59:27;;;;;;;1.83;1.10;;;;;;;19.90;86.61;100237.09;5072436;28;20053;-75
2023/07/01 10:01:57;;;;;;;1.02;1.02;;;;;;;19.97;85.80;100230.31;5072961;28;20042;-75
2023/07/01 10:04:28;;;;;;;1.30;1.20;;;;;;;19.91;85.93;100231.66;5085852;28;20056;-79
2023/07/01 10:06:56;;;;;;;1.65;1.10;;;;;;;19.86;86.19;100231.16;5069091;28;20172;-76
2023/07/01 10:09:26;;;;;;;1.15;1.02;;;;;;;19.83;86.50;100221.50;5077598;28;20040;-76
2023/07/01 10:11:58;;;;;;;0.80;0.80;;;;;;;19.83;86.28;100232.22;5064828;28;20085;-75
2023/07/01 10:14:32;;;;;;;1.00;0.85;;;;;;;19.81;86.39;100228.81;5068150;28;20049;-76
2023/07/01 10:16:59;;;;;;;1.05;0.80;;;;;;;19.82;85.41;100214.47;5085836;28;20043;-75
2023/07/01 10:19:32;;;;;;;1.13;1.00;;;;;;;19.88;85.76;100226.53;5071664;28;20451;-75
2023/07/01 10:22:28;;;;;;;1.20;1.10;;;;;;;19.95;86.27;100217.03;5068142;28;20041;-79
2023/07/01 10:25:06;;;;;;;1.40;0.98;;;;;;;19.97;86.45;100222.28;5068147;28;20572;-78
2023/07/01 10:27:42;;;;;;;1.45;1.30;;;;;;;19.97;85.58;100227.63;5075691;28;20037;-79
2023/07/01 10:30:12;;;;;;;1.30;1.20;;;;;;;19.90;85.68;100227.28;5076917;28;20122;-80
2023/07/01 10:32:40;;;;;;;3.53;1.48;;;;;;;19.88;85.62;100218.50;5072697;28;20565;-80
2023/07/01 10:35:14;;;;;;;1.63;1.48;;;;;;;19.88;85.88;100221.19;5069576;28;20465;-79
2023/07/01 10:37:44;;;;;;;3.40;1.57;;;;;;;19.89;86.05;100227.41;5072335;28;20098;-78
2023/07/01 10:40:29;;;;;;;2.08;1.60;;;;;;;19.89;86.37;100222.06;5079905;28;20134;-79
2023/07/01 10:43:18;;;;;;;6.70;1.80;;;;;;;19.85;85.73;100219.63;5070474;28;20053;-78
2023/07/01 10:45:45;;;;;;;1.55;1.40;;;;;;;19.81;85.63;100215.44;5085822;28;20094;-76
2023/07/01 10:48:14;;;;;;;1.67;1.58;;;;;;;19.88;86.11;100218.50;5066839;28;20577;-79
2023/07/01 10:51:12;;;;;;;2.40;1.63;;;;;;;20.00;85.75;100209.50;5062203;28;20054;-79
2023/07/01 10:54:03;;;;;;;2.88;1.52;;;;;;;20.06;85.41;100213.53;5053758;28;20060;-81
2023/07/01 10:56:39;;;;;;;1.80;1.70;;;;;;;20.10;85.36;100209.59;5063810;28;20056;-74
2023/07/01 10:59:29;;;;;;;2.65;1.80;;;;;;;20.25;84.76;100209.34;5083995;28;20497;-73
2023/07/01 11:02:00;;;;;;;1.83;1.58;;;;;;;20.30;84.56;100204.47;5064978;28;20143;-75
2023/07/01 11:04:52;;;;;;;1.58;1.48;;;;;;;20.38;83.72;100206.53;5069679;28;20962;-75
2023/07/01 11:07:27;;;;;;;5.78;1.42;;;;;;;20.36;83.51;100212.00;5060982;28;20425;-74
2023/07/01 11:09:55;;;;;;;2.25;1.60;;;;;;;20.37;84.08;100204.81;5047646;28;20509;-74
2023/07/01 11:12:24;;;;;;;1.52;1.40;;;;;;;20.37;83.52;100210.16;5057836;28;20044;-76
2023/07/01 11:14:54;;;;;;;1.92;1.60;;;;;;;20.39;83.20;100208.22;5059234;28;20073;-77
2023/07/01 11:17:23;;;;;;;1.60;1.40;;;;;;;20.50;82.78;100202.84;5061552;28;20531;-76
2023/07/01 11:19:55;;;;;;;1.58;1.48;;;;;;;20.53;82.22;100204.41;5057040;28;20049;-76
2023/07/01 11:22:23;;;;;;;1.67;1.35;;;;;;;20.52;82.55;100200.03;5055228;28;20505;-74
2023/07/01 11:24:50;;;;;;;1.98;1.42;;;;;;;20.45;82.57;100202.38;5055460;28;20123;-74
2023/07/01 11:27:17;;;;;;;3.13;1.60;;;;;;;20.37;82.73;100213.72;5054041;28;20063;-76
2023/07/01 11:29:47;;;;;;;3.08;1.60;;;;;;;20.34;83.02;100205.91;5061772;28;20608;-75
2023/07/01 11:32:14;;;;;;;2.53;1.40;;;;;;;20.43;82.64;100209.69;5055914;28;20512;-76
2023/07/01 11:34:46;;;;;;;2.80;1.60;;;;;;;20.49;83.21;100195.78;5059053;28;20046;-77